N18NR KMRY-KSFO
Flight info
| Callsign | N18NR |
|---|---|
| Flight time | 0h 40m |
| Altitude | 8000 |
| Route | MRY5 SHOEY SANTY EDDYY |
| Aircraft | C208/L-SDFGR/C |
Departure
| Time | 2026-05-07 22:48 |
|---|---|
| Airport | Monterey Regional Airport (KMRY) |
Arrival
| Time | 2026-05-07 23:28 |
|---|---|
| Airport | San Francisco International Airport (KSFO) |
| Time | Latitude | Longitude | Altitude | Speed | Heading |
|---|---|---|---|---|---|
| 2026-05-07 22:34 | 36.58750 | -121.83876 | 223 ft | 0 kts | 112° |
| 2026-05-07 22:45 | 36.58732 | -121.83869 | 221 ft | 6 kts | 196° |
| 2026-05-07 22:45 | 36.58696 | -121.83860 | 218 ft | 10 kts | 112° |
| 2026-05-07 22:45 | 36.58657 | -121.83736 | 209 ft | 20 kts | 113° |
| 2026-05-07 22:46 | 36.58603 | -121.83579 | 198 ft | 11 kts | 112° |
| 2026-05-07 22:46 | 36.58585 | -121.83524 | 194 ft | 11 kts | 112° |
| 2026-05-07 22:46 | 36.58549 | -121.83418 | 192 ft | 7 kts | 112° |
| 2026-05-07 22:46 | 36.58546 | -121.83401 | 185 ft | 1 kts | 68° |
| 2026-05-07 22:47 | 36.58548 | -121.83383 | 190 ft | 0 kts | 113° |
| 2026-05-07 22:47 | 36.58530 | -121.83351 | 181 ft | 1 kts | 195° |
| 2026-05-07 22:47 | 36.58522 | -121.83355 | 180 ft | 0 kts | 205° |
| 2026-05-07 22:47 | 36.58507 | -121.83366 | 177 ft | 9 kts | 221° |
| 2026-05-07 22:48 | 36.58513 | -121.83450 | 183 ft | 20 kts | 292° |
| 2026-05-07 22:48 | 36.58686 | -121.83963 | 352 ft | 93 kts | 294° |
| 2026-05-07 22:48 | 36.58989 | -121.84760 | 744 ft | 106 kts | 296° |
| 2026-05-07 22:48 | 36.59372 | -121.85580 | 1081 ft | 110 kts | 309° |
| 2026-05-07 22:49 | 36.60145 | -121.85827 | 1340 ft | 130 kts | 10° |
| 2026-05-07 22:49 | 36.61042 | -121.85532 | 1591 ft | 136 kts | 6° |
| 2026-05-07 22:49 | 36.61981 | -121.85581 | 1840 ft | 136 kts | 342° |
| 2026-05-07 22:49 | 36.62856 | -121.86025 | 2091 ft | 135 kts | 334° |
| 2026-05-07 22:50 | 36.63717 | -121.86533 | 2324 ft | 141 kts | 334° |
| 2026-05-07 22:50 | 36.64616 | -121.87073 | 2570 ft | 146 kts | 335° |
| 2026-05-07 22:50 | 36.65530 | -121.87623 | 2845 ft | 146 kts | 334° |
| 2026-05-07 22:50 | 36.66445 | -121.88177 | 3090 ft | 147 kts | 335° |
| 2026-05-07 22:51 | 36.67363 | -121.88729 | 3342 ft | 146 kts | 334° |
| 2026-05-07 22:51 | 36.68264 | -121.89274 | 3569 ft | 146 kts | 334° |
| 2026-05-07 22:51 | 36.69178 | -121.89829 | 3807 ft | 146 kts | 333° |
| 2026-05-07 22:51 | 36.70090 | -121.90379 | 4050 ft | 145 kts | 333° |
| 2026-05-07 22:52 | 36.71003 | -121.90934 | 4297 ft | 146 kts | 333° |
| 2026-05-07 22:52 | 36.71923 | -121.91490 | 4548 ft | 147 kts | 333° |
| 2026-05-07 22:52 | 36.72845 | -121.92050 | 4792 ft | 148 kts | 332° |
| 2026-05-07 22:52 | 36.73769 | -121.92609 | 5036 ft | 147 kts | 332° |
| 2026-05-07 22:53 | 36.74690 | -121.93171 | 5276 ft | 148 kts | 330° |
| 2026-05-07 22:53 | 36.75619 | -121.93730 | 5510 ft | 148 kts | 332° |
| 2026-05-07 22:53 | 36.76548 | -121.94293 | 5752 ft | 149 kts | 332° |
| 2026-05-07 22:53 | 36.77469 | -121.94852 | 5995 ft | 149 kts | 330° |
| 2026-05-07 22:54 | 36.78411 | -121.95425 | 6136 ft | 156 kts | 330° |
| 2026-05-07 22:54 | 36.79422 | -121.96037 | 6137 ft | 165 kts | 332° |
| 2026-05-07 22:54 | 36.80471 | -121.96677 | 6149 ft | 169 kts | 332° |
| 2026-05-07 22:54 | 36.81541 | -121.97326 | 6149 ft | 171 kts | 330° |
| 2026-05-07 22:55 | 36.82613 | -121.97975 | 6136 ft | 172 kts | 332° |
| 2026-05-07 22:55 | 36.83694 | -121.98633 | 6136 ft | 172 kts | 332° |
| 2026-05-07 22:55 | 36.84758 | -121.99282 | 6137 ft | 173 kts | 331° |
| 2026-05-07 22:55 | 36.85835 | -121.99939 | 6137 ft | 173 kts | 331° |
| 2026-05-07 22:56 | 36.86915 | -122.00604 | 6139 ft | 173 kts | 332° |
| 2026-05-07 22:56 | 36.88001 | -122.01260 | 6135 ft | 173 kts | 330° |
| 2026-05-07 22:56 | 36.89084 | -122.01914 | 6137 ft | 173 kts | 331° |
| 2026-05-07 22:56 | 36.90166 | -122.02571 | 6122 ft | 173 kts | 332° |
| 2026-05-07 22:57 | 36.91247 | -122.03227 | 6128 ft | 173 kts | 330° |
| 2026-05-07 22:57 | 36.92328 | -122.03887 | 6130 ft | 172 kts | 331° |
| 2026-05-07 22:57 | 36.93404 | -122.04547 | 6121 ft | 173 kts | 331° |
| 2026-05-07 22:57 | 36.94491 | -122.05212 | 6122 ft | 173 kts | 331° |
| 2026-05-07 22:58 | 36.95579 | -122.05876 | 6118 ft | 174 kts | 331° |
| 2026-05-07 22:58 | 36.96672 | -122.06543 | 6111 ft | 174 kts | 331° |
| 2026-05-07 22:58 | 36.97761 | -122.07206 | 6113 ft | 174 kts | 331° |
| 2026-05-07 22:58 | 36.98883 | -122.07784 | 6128 ft | 174 kts | 335° |
| 2026-05-07 22:59 | 37.00033 | -122.08362 | 5931 ft | 185 kts | 334° |
| 2026-05-07 22:59 | 37.01236 | -122.08966 | 5605 ft | 185 kts | 333° |
| 2026-05-07 22:59 | 37.02418 | -122.09560 | 5291 ft | 182 kts | 335° |
| 2026-05-07 22:59 | 37.03572 | -122.10133 | 4983 ft | 178 kts | 335° |
| 2026-05-07 23:00 | 37.04724 | -122.10715 | 4656 ft | 178 kts | 336° |
| 2026-05-07 23:00 | 37.05870 | -122.11288 | 4341 ft | 178 kts | 336° |
| 2026-05-07 23:00 | 37.07001 | -122.11862 | 4132 ft | 171 kts | 337° |
| 2026-05-07 23:00 | 37.08068 | -122.12395 | 4123 ft | 159 kts | 335° |
| 2026-05-07 23:01 | 37.09019 | -122.12955 | 4001 ft | 141 kts | 327° |
| 2026-05-07 23:01 | 37.09709 | -122.13592 | 3809 ft | 104 kts | 324° |
| 2026-05-07 23:01 | 37.10235 | -122.14036 | 3728 ft | 81 kts | 325° |
| 2026-05-07 23:01 | 37.10708 | -122.14364 | 3605 ft | 78 kts | 332° |
| 2026-05-07 23:02 | 37.11144 | -122.14701 | 3572 ft | 78 kts | 324° |
| 2026-05-07 23:02 | 37.11597 | -122.15095 | 3500 ft | 78 kts | 324° |
| 2026-05-07 23:02 | 37.12032 | -122.15559 | 3412 ft | 88 kts | 314° |
| 2026-05-07 23:02 | 37.12402 | -122.16155 | 3253 ft | 82 kts | 311° |
| 2026-05-07 23:03 | 37.12565 | -122.16441 | 3179 ft | 77 kts | 300° |
| 2026-05-07 23:03 | 37.12310 | -122.17007 | 3187 ft | 121 kts | 185° |
| 2026-05-07 23:03 | 37.11815 | -122.16654 | 3501 ft | 122 kts | 126° |
| 2026-05-07 23:03 | 37.11383 | -122.16045 | 3460 ft | 128 kts | 138° |
| 2026-05-07 23:04 | 37.10955 | -122.15603 | 3357 ft | 116 kts | 143° |
| 2026-05-07 23:04 | 37.10352 | -122.15199 | 3193 ft | 104 kts | 159° |
| 2026-05-07 23:04 | 37.09699 | -122.14877 | 3082 ft | 101 kts | 162° |
| 2026-05-07 23:04 | 37.09062 | -122.14588 | 2946 ft | 101 kts | 161° |
| 2026-05-07 23:05 | 37.08409 | -122.14259 | 2802 ft | 102 kts | 157° |
| 2026-05-07 23:05 | 37.07830 | -122.13827 | 2480 ft | 94 kts | 139° |
| 2026-05-07 23:05 | 37.07366 | -122.13254 | 2176 ft | 96 kts | 129° |
| 2026-05-07 23:05 | 37.06941 | -122.12636 | 2026 ft | 86 kts | 131° |
| 2026-05-07 23:06 | 37.06600 | -122.11945 | 2245 ft | 111 kts | 95° |
| 2026-05-07 23:06 | 37.06942 | -122.11027 | 2372 ft | 131 kts | 34° |
| 2026-05-07 23:06 | 37.07811 | -122.10914 | 2481 ft | 131 kts | 339° |
| 2026-05-07 23:06 | 37.08435 | -122.11756 | 2601 ft | 137 kts | 304° |
| 2026-05-07 23:07 | 37.09047 | -122.12679 | 2717 ft | 138 kts | 318° |
| 2026-05-07 23:07 | 37.09871 | -122.13274 | 2841 ft | 137 kts | 336° |
| 2026-05-07 23:07 | 37.10759 | -122.13746 | 2968 ft | 139 kts | 337° |
| 2026-05-07 23:07 | 37.11663 | -122.14204 | 3096 ft | 140 kts | 338° |
| 2026-05-07 23:08 | 37.12570 | -122.14660 | 3217 ft | 141 kts | 339° |
| 2026-05-07 23:08 | 37.13485 | -122.15120 | 3334 ft | 142 kts | 338° |
| 2026-05-07 23:08 | 37.14401 | -122.15579 | 3456 ft | 141 kts | 336° |
| 2026-05-07 23:08 | 37.15302 | -122.16034 | 3578 ft | 142 kts | 337° |
| 2026-05-07 23:09 | 37.16215 | -122.16491 | 3694 ft | 140 kts | 336° |
| 2026-05-07 23:09 | 37.17116 | -122.16944 | 3819 ft | 141 kts | 336° |
| 2026-05-07 23:09 | 37.18026 | -122.17404 | 3942 ft | 140 kts | 335° |
| 2026-05-07 23:09 | 37.18937 | -122.17863 | 4068 ft | 141 kts | 335° |
| 2026-05-07 23:10 | 37.19851 | -122.18324 | 4175 ft | 142 kts | 335° |
| 2026-05-07 23:10 | 37.20783 | -122.18790 | 4190 ft | 146 kts | 336° |
| 2026-05-07 23:10 | 37.21736 | -122.19274 | 4192 ft | 149 kts | 336° |
| 2026-05-07 23:10 | 37.22698 | -122.19764 | 4193 ft | 149 kts | 335° |
| 2026-05-07 23:11 | 37.23664 | -122.20252 | 4189 ft | 149 kts | 334° |
| 2026-05-07 23:11 | 37.24632 | -122.20738 | 4190 ft | 150 kts | 336° |
| 2026-05-07 23:11 | 37.25604 | -122.21229 | 4197 ft | 151 kts | 335° |
| 2026-05-07 23:11 | 37.26576 | -122.21719 | 4177 ft | 150 kts | 336° |
| 2026-05-07 23:12 | 37.27547 | -122.22205 | 4185 ft | 151 kts | 336° |
| 2026-05-07 23:12 | 37.28524 | -122.22699 | 4185 ft | 152 kts | 335° |
| 2026-05-07 23:12 | 37.29492 | -122.23193 | 4186 ft | 152 kts | 334° |
| 2026-05-07 23:12 | 37.30473 | -122.23686 | 4189 ft | 152 kts | 337° |
| 2026-05-07 23:13 | 37.31460 | -122.24182 | 4189 ft | 153 kts | 335° |
| 2026-05-07 23:13 | 37.32450 | -122.24685 | 4183 ft | 153 kts | 335° |
| 2026-05-07 23:13 | 37.33436 | -122.25185 | 4186 ft | 151 kts | 334° |
| 2026-05-07 23:13 | 37.34416 | -122.25682 | 4186 ft | 152 kts | 335° |
| 2026-05-07 23:14 | 37.35387 | -122.26178 | 4185 ft | 153 kts | 335° |
| 2026-05-07 23:14 | 37.36375 | -122.26673 | 4185 ft | 153 kts | 335° |
| 2026-05-07 23:14 | 37.37349 | -122.27164 | 4181 ft | 151 kts | 334° |
| 2026-05-07 23:14 | 37.38325 | -122.27663 | 4184 ft | 152 kts | 334° |
| 2026-05-07 23:15 | 37.39309 | -122.28157 | 4183 ft | 153 kts | 338° |
| 2026-05-07 23:15 | 37.40318 | -122.28566 | 4177 ft | 152 kts | 338° |
| 2026-05-07 23:15 | 37.41159 | -122.29309 | 4173 ft | 148 kts | 313° |
| 2026-05-07 23:15 | 37.41887 | -122.30228 | 4177 ft | 149 kts | 315° |
| 2026-05-07 23:16 | 37.42648 | -122.31120 | 4169 ft | 149 kts | 316° |
| 2026-05-07 23:16 | 37.43499 | -122.31866 | 4168 ft | 151 kts | 327° |
| 2026-05-07 23:16 | 37.44110 | -122.32273 | 4177 ft | 148 kts | 329° |
| 2026-05-07 23:16 | 37.45010 | -122.32879 | 4184 ft | 145 kts | 328° |
| 2026-05-07 23:17 | 37.45898 | -122.33521 | 4184 ft | 149 kts | 327° |
| 2026-05-07 23:17 | 37.46802 | -122.34172 | 4180 ft | 150 kts | 326° |
| 2026-05-07 23:17 | 37.47702 | -122.34825 | 4184 ft | 149 kts | 326° |
| 2026-05-07 23:17 | 37.48604 | -122.35482 | 4188 ft | 151 kts | 328° |
| 2026-05-07 23:18 | 37.49532 | -122.36149 | 4175 ft | 154 kts | 328° |
| 2026-05-07 23:18 | 37.50475 | -122.36831 | 4181 ft | 158 kts | 327° |
| 2026-05-07 23:18 | 37.51423 | -122.37521 | 4182 ft | 157 kts | 327° |
| 2026-05-07 23:18 | 37.52368 | -122.38202 | 4217 ft | 157 kts | 327° |
| 2026-05-07 23:19 | 37.53317 | -122.38894 | 4176 ft | 157 kts | 329° |
| 2026-05-07 23:19 | 37.54264 | -122.39581 | 4177 ft | 158 kts | 328° |
| 2026-05-07 23:19 | 37.55217 | -122.40269 | 4178 ft | 157 kts | 327° |
| 2026-05-07 23:19 | 37.56163 | -122.40960 | 4174 ft | 156 kts | 328° |
| 2026-05-07 23:20 | 37.57100 | -122.41644 | 4180 ft | 156 kts | 327° |
| 2026-05-07 23:20 | 37.58050 | -122.42331 | 4173 ft | 158 kts | 328° |
| 2026-05-07 23:20 | 37.58990 | -122.43010 | 4179 ft | 158 kts | 326° |
| 2026-05-07 23:20 | 37.59938 | -122.43703 | 4180 ft | 157 kts | 326° |
| 2026-05-07 23:21 | 37.60887 | -122.44398 | 4179 ft | 158 kts | 327° |
| 2026-05-07 23:21 | 37.61845 | -122.45091 | 4179 ft | 158 kts | 328° |
| 2026-05-07 23:21 | 37.62799 | -122.45783 | 4181 ft | 158 kts | 326° |
| 2026-05-07 23:21 | 37.63781 | -122.46378 | 4238 ft | 165 kts | 340° |
| 2026-05-07 23:22 | 37.64934 | -122.46153 | 4293 ft | 177 kts | 31° |
| 2026-05-07 23:22 | 37.65287 | -122.44957 | 4407 ft | 140 kts | 127° |
| 2026-05-07 23:22 | 37.64419 | -122.44203 | 4059 ft | 155 kts | 168° |
| 2026-05-07 23:22 | 37.63426 | -122.43857 | 3817 ft | 143 kts | 165° |
| 2026-05-07 23:23 | 37.62530 | -122.43432 | 3413 ft | 132 kts | 157° |
| 2026-05-07 23:23 | 37.61800 | -122.42942 | 3069 ft | 112 kts | 154° |
| 2026-05-07 23:23 | 37.61137 | -122.42450 | 2714 ft | 108 kts | 144° |
| 2026-05-07 23:23 | 37.60586 | -122.41795 | 2287 ft | 110 kts | 136° |
| 2026-05-07 23:24 | 37.60166 | -122.40976 | 1736 ft | 112 kts | 117° |
| 2026-05-07 23:24 | 37.59952 | -122.40045 | 1323 ft | 116 kts | 95° |
| 2026-05-07 23:24 | 37.60082 | -122.38976 | 773 ft | 125 kts | 54° |
| 2026-05-07 23:24 | 37.60671 | -122.38296 | 298 ft | 106 kts | 20° |
| 2026-05-07 23:25 | 37.61273 | -122.37959 | 151 ft | 96 kts | 19° |
| 2026-05-07 23:25 | 37.61806 | -122.37619 | 37 ft | 78 kts | 25° |
| 2026-05-07 23:25 | 37.62250 | -122.37329 | 20 ft | 78 kts | 25° |
| 2026-05-07 23:25 | 37.62765 | -122.36985 | 327 ft | 93 kts | 32° |
| 2026-05-07 23:26 | 37.63101 | -122.36194 | 725 ft | 99 kts | 60° |
| 2026-05-07 23:26 | 37.63147 | -122.35204 | 955 ft | 127 kts | 99° |
| 2026-05-07 23:26 | 37.62949 | -122.33997 | 1069 ft | 157 kts | 103° |
| 2026-05-07 23:26 | 37.62407 | -122.32845 | 1313 ft | 147 kts | 149° |
| 2026-05-07 23:27 | 37.60964 | -122.33050 | 920 ft | 93 kts | 225° |
| 2026-05-07 23:27 | 37.60546 | -122.33704 | 639 ft | 95 kts | 258° |
| 2026-05-07 23:27 | 37.60565 | -122.34357 | 423 ft | 66 kts | 293° |
| 2026-05-07 23:28 | 37.60737 | -122.34803 | 324 ft | 54 kts | 301° |
| 2026-05-07 23:28 | 37.60928 | -122.35185 | 248 ft | 52 kts | 300° |
| 2026-05-07 23:28 | 37.61080 | -122.35572 | 187 ft | 50 kts | 296° |
| 2026-05-07 23:28 | 37.61238 | -122.35988 | 102 ft | 49 kts | 294° |
| 2026-05-07 23:29 | 37.61383 | -122.36336 | 31 ft | 39 kts | 299° |
| 2026-05-07 23:29 | 37.61519 | -122.36654 | 62 ft | 60 kts | 298° |
| 2026-05-07 23:29 | 37.61788 | -122.37296 | 55 ft | 106 kts | 299° |
| 2026-05-07 23:29 | 37.62197 | -122.38203 | 306 ft | 121 kts | 301° |
| 2026-05-07 23:30 | 37.62747 | -122.38857 | 980 ft | 103 kts | 344° |
| 2026-05-07 23:30 | 37.63322 | -122.38426 | 1025 ft | 106 kts | 46° |
| 2026-05-07 23:30 | 37.63554 | -122.37525 | 980 ft | 114 kts | 90° |
| 2026-05-07 23:30 | 37.63362 | -122.36340 | 977 ft | 161 kts | 108° |
| 2026-05-07 23:31 | 37.62865 | -122.34958 | 989 ft | 183 kts | 120° |
| 2026-05-07 23:31 | 37.62214 | -122.33577 | 1238 ft | 173 kts | 128° |
| 2026-05-07 23:31 | 37.61429 | -122.32945 | 1240 ft | 114 kts | 184° |
| 2026-05-07 23:31 | 37.60881 | -122.33286 | 1033 ft | 85 kts | 231° |
| 2026-05-07 23:32 | 37.60548 | -122.33853 | 682 ft | 75 kts | 254° |
| 2026-05-07 23:32 | 37.60527 | -122.34412 | 477 ft | 58 kts | 292° |
| 2026-05-07 23:32 | 37.60716 | -122.34842 | 299 ft | 54 kts | 303° |
| 2026-05-07 23:32 | 37.60927 | -122.35255 | 245 ft | 49 kts | 295° |
| 2026-05-07 23:33 | 37.61088 | -122.35636 | 105 ft | 50 kts | 297° |
| 2026-05-07 23:33 | 37.61246 | -122.36011 | 37 ft | 47 kts | 299° |
| 2026-05-07 23:33 | 37.61382 | -122.36338 | 14 ft | 37 kts | 299° |
| 2026-05-07 23:33 | 37.61482 | -122.36582 | 18 ft | 29 kts | 300° |
| 2026-05-07 23:34 | 37.61569 | -122.36762 | 21 ft | 20 kts | 314° |
| 2026-05-07 23:34 | 37.61746 | -122.36767 | 20 ft | 32 kts | 335° |
| 2026-05-07 23:34 | 37.61918 | -122.36871 | 19 ft | 35 kts | 302° |
| 2026-05-07 23:34 | 37.62045 | -122.37082 | 14 ft | 30 kts | 316° |
| 2026-05-07 23:35 | 37.62208 | -122.37376 | 15 ft | 38 kts | 300° |
| 2026-05-07 23:35 | 37.62318 | -122.37650 | 20 ft | 41 kts | 300° |
| 2026-05-07 23:35 | 37.62494 | -122.38069 | 21 ft | 44 kts | 300° |
| 2026-05-07 23:35 | 37.62647 | -122.38281 | 16 ft | 26 kts | 5° |